sensor_id;sensor_type;location;lat;lon;timestamp;P1;durP1;ratioP1;P2;durP2;ratioP2
20093;SDS011;10206;48.012;10.030;2024-03-07T00:00:10;8.73;;;5.27;;
20093;SDS011;10206;48.012;10.030;2024-03-07T00:02:46;7.87;;;5.23;;
20093;SDS011;10206;48.012;10.030;2024-03-07T00:05:13;7.73;;;5.40;;
20093;SDS011;10206;48.012;10.030;2024-03-07T00:07:40;7.97;;;5.30;;
20093;SDS011;10206;48.012;10.030;2024-03-07T00:10:07;9.10;;;5.90;;
20093;SDS011;10206;48.012;10.030;2024-03-07T00:12:34;9.27;;;5.73;;
20093;SDS011;10206;48.012;10.030;2024-03-07T00:15:05;10.57;;;5.87;;
20093;SDS011;10206;48.012;10.030;2024-03-07T00:17:36;9.27;;;5.73;;
20093;SDS011;10206;48.012;10.030;2024-03-07T00:20:02;8.97;;;5.77;;
20093;SDS011;10206;48.012;10.030;2024-03-07T00:22:30;11.77;;;6.90;;
20093;SDS011;10206;48.012;10.030;2024-03-07T00:24:56;10.40;;;6.00;;
20093;SDS011;10206;48.012;10.030;2024-03-07T00:27:23;12.20;;;7.80;;
20093;SDS011;10206;48.012;10.030;2024-03-07T00:29:49;13.47;;;7.83;;
20093;SDS011;10206;48.012;10.030;2024-03-07T00:32:21;11.23;;;6.90;;
20093;SDS011;10206;48.012;10.030;2024-03-07T00:34:48;12.93;;;7.33;;
20093;SDS011;10206;48.012;10.030;2024-03-07T00:37:15;12.27;;;7.30;;
20093;SDS011;10206;48.012;10.030;2024-03-07T00:39:42;12.73;;;8.17;;
20093;SDS011;10206;48.012;10.030;2024-03-07T00:42:08;14.07;;;8.47;;
20093;SDS011;10206;48.012;10.030;2024-03-07T00:44:35;13.33;;;7.60;;
20093;SDS011;10206;48.012;10.030;2024-03-07T00:47:01;14.13;;;8.27;;
20093;SDS011;10206;48.012;10.030;2024-03-07T00:49:27;11.27;;;7.43;;
20093;SDS011;10206;48.012;10.030;2024-03-07T00:51:55;13.73;;;8.37;;
20093;SDS011;10206;48.012;10.030;2024-03-07T00:54:22;13.77;;;8.03;;
20093;SDS011;10206;48.012;10.030;2024-03-07T00:56:49;12.57;;;7.40;;
20093;SDS011;10206;48.012;10.030;2024-03-07T00:59:15;13.87;;;8.17;;
20093;SDS011;10206;48.012;10.030;2024-03-07T01:01:42;14.13;;;8.13;;
20093;SDS011;10206;48.012;10.030;2024-03-07T01:04:08;12.40;;;7.33;;
20093;SDS011;10206;48.012;10.030;2024-03-07T01:06:34;14.57;;;8.27;;
20093;SDS011;10206;48.012;10.030;2024-03-07T01:09:05;15.07;;;8.47;;
20093;SDS011;10206;48.012;10.030;2024-03-07T01:11:39;13.70;;;7.97;;
20093;SDS011;10206;48.012;10.030;2024-03-07T01:14:06;15.07;;;8.53;;
20093;SDS011;10206;48.012;10.030;2024-03-07T01:16:32;14.50;;;8.17;;
20093;SDS011;10206;48.012;10.030;2024-03-07T01:18:58;15.17;;;8.40;;
20093;SDS011;10206;48.012;10.030;2024-03-07T01:21:24;14.33;;;7.63;;
20093;SDS011;10206;48.012;10.030;2024-03-07T01:23:51;13.30;;;7.70;;
20093;SDS011;10206;48.012;10.030;2024-03-07T01:26:17;15.60;;;8.57;;
20093;SDS011;10206;48.012;10.030;2024-03-07T01:28:43;15.37;;;8.57;;
20093;SDS011;10206;48.012;10.030;2024-03-07T01:31:09;15.93;;;8.20;;
20093;SDS011;10206;48.012;10.030;2024-03-07T01:33:35;14.30;;;8.20;;
20093;SDS011;10206;48.012;10.030;2024-03-07T01:36:01;13.93;;;8.53;;
20093;SDS011;10206;48.012;10.030;2024-03-07T01:38:30;15.27;;;8.83;;
20093;SDS011;10206;48.012;10.030;2024-03-07T01:40:56;14.77;;;8.47;;
20093;SDS011;10206;48.012;10.030;2024-03-07T01:43:22;14.33;;;8.10;;
20093;SDS011;10206;48.012;10.030;2024-03-07T01:45:48;15.43;;;8.47;;
20093;SDS011;10206;48.012;10.030;2024-03-07T01:48:22;14.37;;;8.47;;
20093;SDS011;10206;48.012;10.030;2024-03-07T01:50:51;17.50;;;9.40;;
20093;SDS011;10206;48.012;10.030;2024-03-07T01:53:18;15.97;;;9.00;;
20093;SDS011;10206;48.012;10.030;2024-03-07T01:55:44;14.73;;;8.57;;
20093;SDS011;10206;48.012;10.030;2024-03-07T01:58:10;15.67;;;8.90;;
20093;SDS011;10206;48.012;10.030;2024-03-07T02:00:39;13.63;;;8.10;;
20093;SDS011;10206;48.012;10.030;2024-03-07T02:03:05;13.70;;;8.07;;
20093;SDS011;10206;48.012;10.030;2024-03-07T02:05:32;14.23;;;8.40;;
20093;SDS011;10206;48.012;10.030;2024-03-07T02:07:58;16.50;;;9.53;;
20093;SDS011;10206;48.012;10.030;2024-03-07T02:10:26;16.00;;;8.60;;
20093;SDS011;10206;48.012;10.030;2024-03-07T02:12:52;16.33;;;8.90;;
20093;SDS011;10206;48.012;10.030;2024-03-07T02:15:18;15.30;;;8.73;;
20093;SDS011;10206;48.012;10.030;2024-03-07T02:17:45;18.03;;;9.53;;
20093;SDS011;10206;48.012;10.030;2024-03-07T02:20:11;18.17;;;9.53;;
20093;SDS011;10206;48.012;10.030;2024-03-07T02:22:38;16.70;;;9.37;;
20093;SDS011;10206;48.012;10.030;2024-03-07T02:25:04;17.13;;;9.40;;
20093;SDS011;10206;48.012;10.030;2024-03-07T02:27:31;16.63;;;8.70;;
20093;SDS011;10206;48.012;10.030;2024-03-07T02:29:57;17.20;;;9.13;;
20093;SDS011;10206;48.012;10.030;2024-03-07T02:32:23;18.90;;;9.73;;
20093;SDS011;10206;48.012;10.030;2024-03-07T02:34:51;17.37;;;9.17;;
20093;SDS011;10206;48.012;10.030;2024-03-07T02:37:17;21.47;;;9.90;;
20093;SDS011;10206;48.012;10.030;2024-03-07T02:39:43;20.63;;;10.87;;
20093;SDS011;10206;48.012;10.030;2024-03-07T02:42:10;21.43;;;11.53;;
20093;SDS011;10206;48.012;10.030;2024-03-07T02:44:36;22.57;;;11.50;;
20093;SDS011;10206;48.012;10.030;2024-03-07T02:47:03;19.27;;;10.70;;
20093;SDS011;10206;48.012;10.030;2024-03-07T02:49:30;19.60;;;10.90;;
20093;SDS011;10206;48.012;10.030;2024-03-07T02:51:56;19.23;;;10.93;;
20093;SDS011;10206;48.012;10.030;2024-03-07T02:54:22;20.30;;;11.10;;
20093;SDS011;10206;48.012;10.030;2024-03-07T02:56:48;17.73;;;10.33;;
20093;SDS011;10206;48.012;10.030;2024-03-07T02:59:14;19.10;;;9.77;;
20093;SDS011;10206;48.012;10.030;2024-03-07T03:01:41;17.40;;;9.70;;
20093;SDS011;10206;48.012;10.030;2024-03-07T03:04:07;20.27;;;10.03;;
20093;SDS011;10206;48.012;10.030;2024-03-07T03:06:33;20.33;;;10.60;;
20093;SDS011;10206;48.012;10.030;2024-03-07T03:09:00;19.13;;;10.80;;
20093;SDS011;10206;48.012;10.030;2024-03-07T03:11:26;22.53;;;12.13;;
20093;SDS011;10206;48.012;10.030;2024-03-07T03:13:52;21.17;;;11.20;;
20093;SDS011;10206;48.012;10.030;2024-03-07T03:16:18;18.53;;;10.63;;
20093;SDS011;10206;48.012;10.030;2024-03-07T03:18:44;20.23;;;11.27;;
20093;SDS011;10206;48.012;10.030;2024-03-07T03:21:10;21.97;;;11.90;;
20093;SDS011;10206;48.012;10.030;2024-03-07T03:23:37;21.50;;;11.90;;
20093;SDS011;10206;48.012;10.030;2024-03-07T03:26:03;20.93;;;10.80;;
20093;SDS011;10206;48.012;10.030;2024-03-07T03:28:29;20.17;;;10.73;;
20093;SDS011;10206;48.012;10.030;2024-03-07T03:30:55;18.77;;;10.63;;
20093;SDS011;10206;48.012;10.030;2024-03-07T03:33:22;20.87;;;12.23;;
20093;SDS011;10206;48.012;10.030;2024-03-07T03:35:48;20.73;;;11.20;;
20093;SDS011;10206;48.012;10.030;2024-03-07T03:38:14;26.40;;;13.23;;
20093;SDS011;10206;48.012;10.030;2024-03-07T03:40:41;31.80;;;13.90;;
20093;SDS011;10206;48.012;10.030;2024-03-07T03:43:07;24.57;;;12.33;;
20093;SDS011;10206;48.012;10.030;2024-03-07T03:45:33;21.97;;;11.23;;
20093;SDS011;10206;48.012;10.030;2024-03-07T03:47:59;22.43;;;11.23;;
20093;SDS011;10206;48.012;10.030;2024-03-07T03:50:25;21.70;;;12.03;;
20093;SDS011;10206;48.012;10.030;2024-03-07T03:52:51;25.30;;;12.57;;
20093;SDS011;10206;48.012;10.030;2024-03-07T03:55:18;22.33;;;12.00;;
20093;SDS011;10206;48.012;10.030;2024-03-07T03:57:45;22.47;;;12.57;;
20093;SDS011;10206;48.012;10.030;2024-03-07T04:00:14;23.53;;;11.67;;
20093;SDS011;10206;48.012;10.030;2024-03-07T04:02:45;24.63;;;12.53;;
20093;SDS011;10206;48.012;10.030;2024-03-07T04:05:15;31.50;;;14.20;;
20093;SDS011;10206;48.012;10.030;2024-03-07T04:07:43;39.47;;;17.50;;
20093;SDS011;10206;48.012;10.030;2024-03-07T04:10:10;37.40;;;17.13;;
20093;SDS011;10206;48.012;10.030;2024-03-07T04:12:38;39.23;;;17.17;;
20093;SDS011;10206;48.012;10.030;2024-03-07T04:15:08;37.97;;;17.87;;
20093;SDS011;10206;48.012;10.030;2024-03-07T04:17:36;41.97;;;18.10;;
20093;SDS011;10206;48.012;10.030;2024-03-07T04:20:03;38.07;;;15.97;;
20093;SDS011;10206;48.012;10.030;2024-03-07T04:22:31;36.07;;;17.47;;
20093;SDS011;10206;48.012;10.030;2024-03-07T04:25:00;39.20;;;16.90;;
20093;SDS011;10206;48.012;10.030;2024-03-07T04:27:27;33.77;;;16.23;;
20093;SDS011;10206;48.012;10.030;2024-03-07T04:29:53;35.63;;;16.07;;
20093;SDS011;10206;48.012;10.030;2024-03-07T04:32:20;37.20;;;16.83;;
20093;SDS011;10206;48.012;10.030;2024-03-07T04:34:46;36.63;;;17.10;;
20093;SDS011;10206;48.012;10.030;2024-03-07T04:37:13;37.37;;;17.03;;
20093;SDS011;10206;48.012;10.030;2024-03-07T04:39:40;38.03;;;16.63;;
20093;SDS011;10206;48.012;10.030;2024-03-07T04:42:06;41.53;;;18.60;;
20093;SDS011;10206;48.012;10.030;2024-03-07T04:44:34;40.50;;;18.00;;
20093;SDS011;10206;48.012;10.030;2024-03-07T04:47:01;41.77;;;17.97;;
20093;SDS011;10206;48.012;10.030;2024-03-07T04:49:29;42.87;;;20.10;;
20093;SDS011;10206;48.012;10.030;2024-03-07T04:51:57;42.00;;;18.97;;
20093;SDS011;10206;48.012;10.030;2024-03-07T04:54:25;39.90;;;18.53;;
20093;SDS011;10206;48.012;10.030;2024-03-07T04:56:52;42.70;;;18.97;;
20093;SDS011;10206;48.012;10.030;2024-03-07T04:59:19;37.73;;;17.37;;
20093;SDS011;10206;48.012;10.030;2024-03-07T05:01:46;36.37;;;16.50;;
20093;SDS011;10206;48.012;10.030;2024-03-07T05:04:15;41.77;;;17.77;;
20093;SDS011;10206;48.012;10.030;2024-03-07T05:06:42;40.97;;;18.40;;
20093;SDS011;10206;48.012;10.030;2024-03-07T05:09:09;42.47;;;19.20;;
20093;SDS011;10206;48.012;10.030;2024-03-07T05:11:46;48.27;;;19.07;;
20093;SDS011;10206;48.012;10.030;2024-03-07T05:14:13;42.97;;;20.07;;
20093;SDS011;10206;48.012;10.030;2024-03-07T05:16:41;45.03;;;19.67;;
20093;SDS011;10206;48.012;10.030;2024-03-07T05:19:08;43.87;;;19.77;;
20093;SDS011;10206;48.012;10.030;2024-03-07T05:21:34;49.03;;;19.33;;
20093;SDS011;10206;48.012;10.030;2024-03-07T05:24:07;45.40;;;19.60;;
20093;SDS011;10206;48.012;10.030;2024-03-07T05:26:36;45.77;;;20.70;;
20093;SDS011;10206;48.012;10.030;2024-03-07T05:29:05;47.20;;;19.57;;
20093;SDS011;10206;48.012;10.030;2024-03-07T05:31:36;51.87;;;22.20;;
20093;SDS011;10206;48.012;10.030;2024-03-07T05:34:03;48.33;;;20.47;;
20093;SDS011;10206;48.012;10.030;2024-03-07T05:36:33;53.80;;;21.97;;
20093;SDS011;10206;48.012;10.030;2024-03-07T05:39:00;48.33;;;21.67;;
20093;SDS011;10206;48.012;10.030;2024-03-07T05:41:33;45.37;;;20.43;;
20093;SDS011;10206;48.012;10.030;2024-03-07T05:43:59;49.10;;;21.40;;
20093;SDS011;10206;48.012;10.030;2024-03-07T05:46:25;45.97;;;21.10;;
20093;SDS011;10206;48.012;10.030;2024-03-07T05:48:51;50.03;;;22.17;;
20093;SDS011;10206;48.012;10.030;2024-03-07T05:51:24;49.67;;;21.70;;
20093;SDS011;10206;48.012;10.030;2024-03-07T05:53:50;50.80;;;23.33;;
20093;SDS011;10206;48.012;10.030;2024-03-07T05:56:16;46.17;;;22.60;;
20093;SDS011;10206;48.012;10.030;2024-03-07T05:58:42;50.90;;;22.47;;
20093;SDS011;10206;48.012;10.030;2024-03-07T06:01:09;46.23;;;20.47;;
20093;SDS011;10206;48.012;10.030;2024-03-07T06:03:35;49.40;;;22.10;;
20093;SDS011;10206;48.012;10.030;2024-03-07T06:06:01;49.53;;;22.03;;
20093;SDS011;10206;48.012;10.030;2024-03-07T06:08:27;50.60;;;22.33;;
20093;SDS011;10206;48.012;10.030;2024-03-07T06:10:53;44.53;;;20.73;;
20093;SDS011;10206;48.012;10.030;2024-03-07T06:13:19;46.17;;;21.00;;
20093;SDS011;10206;48.012;10.030;2024-03-07T06:15:46;44.93;;;21.57;;
20093;SDS011;10206;48.012;10.030;2024-03-07T06:18:12;50.00;;;22.73;;
20093;SDS011;10206;48.012;10.030;2024-03-07T06:20:40;49.07;;;21.97;;
20093;SDS011;10206;48.012;10.030;2024-03-07T06:23:07;49.33;;;22.47;;
20093;SDS011;10206;48.012;10.030;2024-03-07T06:25:33;48.20;;;21.40;;
20093;SDS011;10206;48.012;10.030;2024-03-07T06:28:12;46.43;;;20.97;;
20093;SDS011;10206;48.012;10.030;2024-03-07T06:30:42;43.27;;;19.50;;
20093;SDS011;10206;48.012;10.030;2024-03-07T06:33:12;50.97;;;21.77;;
20093;SDS011;10206;48.012;10.030;2024-03-07T06:35:39;48.73;;;22.33;;
20093;SDS011;10206;48.012;10.030;2024-03-07T06:38:06;43.40;;;20.53;;
20093;SDS011;10206;48.012;10.030;2024-03-07T06:40:36;46.33;;;20.60;;
20093;SDS011;10206;48.012;10.030;2024-03-07T06:43:05;46.47;;;20.73;;
20093;SDS011;10206;48.012;10.030;2024-03-07T06:45:32;45.87;;;20.87;;
20093;SDS011;10206;48.012;10.030;2024-03-07T06:47:59;46.83;;;20.07;;
20093;SDS011;10206;48.012;10.030;2024-03-07T06:50:25;46.40;;;21.17;;
20093;SDS011;10206;48.012;10.030;2024-03-07T06:52:54;52.40;;;21.37;;
20093;SDS011;10206;48.012;10.030;2024-03-07T06:55:20;51.77;;;22.80;;
20093;SDS011;10206;48.012;10.030;2024-03-07T06:57:47;49.70;;;22.23;;
20093;SDS011;10206;48.012;10.030;2024-03-07T07:00:13;51.93;;;22.73;;
20093;SDS011;10206;48.012;10.030;2024-03-07T07:02:47;51.00;;;23.80;;
20093;SDS011;10206;48.012;10.030;2024-03-07T07:05:14;51.67;;;24.13;;
20093;SDS011;10206;48.012;10.030;2024-03-07T07:07:43;51.77;;;23.23;;
20093;SDS011;10206;48.012;10.030;2024-03-07T07:10:09;51.33;;;23.77;;
20093;SDS011;10206;48.012;10.030;2024-03-07T07:12:50;50.90;;;24.97;;
20093;SDS011;10206;48.012;10.030;2024-03-07T07:15:19;55.60;;;24.93;;
20093;SDS011;10206;48.012;10.030;2024-03-07T07:17:46;50.67;;;24.30;;
20093;SDS011;10206;48.012;10.030;2024-03-07T07:20:15;51.57;;;23.57;;
20093;SDS011;10206;48.012;10.030;2024-03-07T07:22:42;50.80;;;23.07;;
20093;SDS011;10206;48.012;10.030;2024-03-07T07:25:09;52.53;;;23.67;;
20093;SDS011;10206;48.012;10.030;2024-03-07T07:27:43;49.93;;;23.43;;
20093;SDS011;10206;48.012;10.030;2024-03-07T07:30:17;50.97;;;25.17;;
20093;SDS011;10206;48.012;10.030;2024-03-07T07:32:47;55.70;;;27.27;;
20093;SDS011;10206;48.012;10.030;2024-03-07T07:35:14;54.70;;;25.33;;
20093;SDS011;10206;48.012;10.030;2024-03-07T07:37:41;56.40;;;26.03;;
20093;SDS011;10206;48.012;10.030;2024-03-07T07:40:08;56.13;;;24.80;;
20093;SDS011;10206;48.012;10.030;2024-03-07T07:42:40;50.10;;;24.07;;
20093;SDS011;10206;48.012;10.030;2024-03-07T07:45:07;55.00;;;25.27;;
20093;SDS011;10206;48.012;10.030;2024-03-07T07:47:55;50.30;;;24.00;;
20093;SDS011;10206;48.012;10.030;2024-03-07T07:50:23;52.57;;;24.23;;
20093;SDS011;10206;48.012;10.030;2024-03-07T07:52:50;54.20;;;25.20;;
20093;SDS011;10206;48.012;10.030;2024-03-07T07:55:21;48.73;;;23.90;;
20093;SDS011;10206;48.012;10.030;2024-03-07T07:57:55;56.33;;;25.23;;
20093;SDS011;10206;48.012;10.030;2024-03-07T08:00:23;51.60;;;25.43;;
20093;SDS011;10206;48.012;10.030;2024-03-07T08:02:54;47.83;;;24.37;;
20093;SDS011;10206;48.012;10.030;2024-03-07T08:05:22;49.87;;;24.53;;
20093;SDS011;10206;48.012;10.030;2024-03-07T08:07:53;48.63;;;25.37;;
20093;SDS011;10206;48.012;10.030;2024-03-07T08:10:23;51.60;;;24.50;;
20093;SDS011;10206;48.012;10.030;2024-03-07T08:12:50;46.63;;;24.33;;
20093;SDS011;10206;48.012;10.030;2024-03-07T08:15:17;48.23;;;24.17;;
20093;SDS011;10206;48.012;10.030;2024-03-07T08:17:43;47.30;;;25.10;;
20093;SDS011;10206;48.012;10.030;2024-03-07T08:20:12;48.00;;;24.10;;
20093;SDS011;10206;48.012;10.030;2024-03-07T08:22:42;109.63;;;61.37;;
20093;SDS011;10206;48.012;10.030;2024-03-07T08:25:12;56.87;;;28.77;;
20093;SDS011;10206;48.012;10.030;2024-03-07T08:27:39;61.70;;;32.60;;
20093;SDS011;10206;48.012;10.030;2024-03-07T08:30:10;56.67;;;29.57;;
20093;SDS011;10206;48.012;10.030;2024-03-07T08:32:40;49.90;;;25.53;;
20093;SDS011;10206;48.012;10.030;2024-03-07T08:35:07;45.30;;;24.43;;
20093;SDS011;10206;48.012;10.030;2024-03-07T08:40:05;50.10;;;26.23;;
20093;SDS011;10206;48.012;10.030;2024-03-07T08:42:35;45.97;;;25.37;;
20093;SDS011;10206;48.012;10.030;2024-03-07T08:45:06;51.00;;;25.80;;
20093;SDS011;10206;48.012;10.030;2024-03-07T08:47:35;49.40;;;26.23;;
20093;SDS011;10206;48.012;10.030;2024-03-07T08:50:03;47.37;;;25.50;;
20093;SDS011;10206;48.012;10.030;2024-03-07T08:52:33;51.23;;;26.80;;
20093;SDS011;10206;48.012;10.030;2024-03-07T08:55:02;56.43;;;29.40;;
20093;SDS011;10206;48.012;10.030;2024-03-07T08:57:28;56.57;;;29.87;;
20093;SDS011;10206;48.012;10.030;2024-03-07T08:59:55;57.77;;;29.93;;
20093;SDS011;10206;48.012;10.030;2024-03-07T09:02:22;61.50;;;31.10;;
20093;SDS011;10206;48.012;10.030;2024-03-07T09:04:48;59.30;;;32.13;;
20093;SDS011;10206;48.012;10.030;2024-03-07T09:07:15;61.90;;;30.97;;
20093;SDS011;10206;48.012;10.030;2024-03-07T09:09:42;65.90;;;35.77;;
20093;SDS011;10206;48.012;10.030;2024-03-07T09:12:10;65.13;;;34.57;;
20093;SDS011;10206;48.012;10.030;2024-03-07T09:14:36;66.57;;;31.93;;
20093;SDS011;10206;48.012;10.030;2024-03-07T09:17:03;67.00;;;34.43;;
20093;SDS011;10206;48.012;10.030;2024-03-07T09:19:32;72.27;;;35.97;;
20093;SDS011;10206;48.012;10.030;2024-03-07T09:21:58;65.07;;;33.33;;
20093;SDS011;10206;48.012;10.030;2024-03-07T09:24:25;65.70;;;33.47;;
20093;SDS011;10206;48.012;10.030;2024-03-07T09:26:51;84.80;;;41.20;;
20093;SDS011;10206;48.012;10.030;2024-03-07T09:29:18;71.97;;;36.77;;
20093;SDS011;10206;48.012;10.030;2024-03-07T09:31:45;75.73;;;37.37;;
20093;SDS011;10206;48.012;10.030;2024-03-07T09:34:14;69.03;;;33.57;;
20093;SDS011;10206;48.012;10.030;2024-03-07T09:36:41;61.97;;;32.73;;
20093;SDS011;10206;48.012;10.030;2024-03-07T09:39:07;81.60;;;41.10;;
20093;SDS011;10206;48.012;10.030;2024-03-07T09:41:40;77.47;;;41.17;;
20093;SDS011;10206;48.012;10.030;2024-03-07T09:44:08;69.07;;;34.43;;
20093;SDS011;10206;48.012;10.030;2024-03-07T09:46:37;70.67;;;38.30;;
20093;SDS011;10206;48.012;10.030;2024-03-07T09:49:04;86.67;;;42.23;;
20093;SDS011;10206;48.012;10.030;2024-03-07T09:51:33;71.03;;;37.53;;
20093;SDS011;10206;48.012;10.030;2024-03-07T09:54:01;120.30;;;64.93;;
20093;SDS011;10206;48.012;10.030;2024-03-07T09:56:27;98.27;;;51.57;;
20093;SDS011;10206;48.012;10.030;2024-03-07T09:58:57;94.97;;;49.97;;
20093;SDS011;10206;48.012;10.030;2024-03-07T10:01:27;88.00;;;47.07;;
20093;SDS011;10206;48.012;10.030;2024-03-07T10:03:59;66.07;;;34.97;;
20093;SDS011;10206;48.012;10.030;2024-03-07T10:06:35;91.87;;;48.13;;
20093;SDS011;10206;48.012;10.030;2024-03-07T10:09:01;91.43;;;49.63;;
20093;SDS011;10206;48.012;10.030;2024-03-07T10:11:29;89.67;;;46.03;;
20093;SDS011;10206;48.012;10.030;2024-03-07T10:13:55;87.23;;;47.93;;
20093;SDS011;10206;48.012;10.030;2024-03-07T10:16:21;68.60;;;38.27;;
20093;SDS011;10206;48.012;10.030;2024-03-07T10:18:47;57.83;;;32.30;;
20093;SDS011;10206;48.012;10.030;2024-03-07T10:21:15;74.00;;;40.60;;
20093;SDS011;10206;48.012;10.030;2024-03-07T10:23:44;63.23;;;34.83;;
20093;SDS011;10206;48.012;10.030;2024-03-07T10:26:11;69.43;;;35.53;;
20093;SDS011;10206;48.012;10.030;2024-03-07T10:28:37;81.50;;;39.10;;
20093;SDS011;10206;48.012;10.030;2024-03-07T10:31:04;74.13;;;37.33;;
20093;SDS011;10206;48.012;10.030;2024-03-07T10:33:36;67.43;;;36.33;;
20093;SDS011;10206;48.012;10.030;2024-03-07T10:36:02;71.23;;;37.83;;
20093;SDS011;10206;48.012;10.030;2024-03-07T10:38:29;70.73;;;35.73;;
20093;SDS011;10206;48.012;10.030;2024-03-07T10:40:55;63.73;;;33.27;;
20093;SDS011;10206;48.012;10.030;2024-03-07T10:43:21;64.37;;;33.60;;
20093;SDS011;10206;48.012;10.030;2024-03-07T10:45:48;64.67;;;34.03;;
20093;SDS011;10206;48.012;10.030;2024-03-07T10:48:21;67.47;;;33.40;;
20093;SDS011;10206;48.012;10.030;2024-03-07T10:59:18;68.50;;;34.90;;
20093;SDS011;10206;48.012;10.030;2024-03-07T11:04:46;77.97;;;35.97;;
20093;SDS011;10206;48.012;10.030;2024-03-07T11:07:19;74.40;;;37.50;;
20093;SDS011;10206;48.012;10.030;2024-03-07T11:09:48;73.03;;;37.27;;
20093;SDS011;10206;48.012;10.030;2024-03-07T11:12:17;72.60;;;36.10;;
20093;SDS011;10206;48.012;10.030;2024-03-07T11:14:48;72.17;;;35.07;;
20093;SDS011;10206;48.012;10.030;2024-03-07T11:17:16;78.33;;;38.43;;
20093;SDS011;10206;48.012;10.030;2024-03-07T11:19:44;73.90;;;37.83;;
20093;SDS011;10206;48.012;10.030;2024-03-07T11:22:19;73.73;;;36.83;;
20093;SDS011;10206;48.012;10.030;2024-03-07T11:25:04;71.53;;;36.23;;
20093;SDS011;10206;48.012;10.030;2024-03-07T11:27:38;70.90;;;35.53;;
20093;SDS011;10206;48.012;10.030;2024-03-07T11:30:16;72.27;;;35.80;;
20093;SDS011;10206;48.012;10.030;2024-03-07T11:32:43;75.27;;;36.67;;
20093;SDS011;10206;48.012;10.030;2024-03-07T11:35:13;73.07;;;35.63;;
20093;SDS011;10206;48.012;10.030;2024-03-07T11:37:42;74.40;;;35.50;;
20093;SDS011;10206;48.012;10.030;2024-03-07T11:40:11;77.30;;;36.20;;
20093;SDS011;10206;48.012;10.030;2024-03-07T11:42:43;68.87;;;34.33;;
20093;SDS011;10206;48.012;10.030;2024-03-07T11:45:13;76.07;;;35.80;;
20093;SDS011;10206;48.012;10.030;2024-03-07T11:47:50;82.20;;;38.63;;
20093;SDS011;10206;48.012;10.030;2024-03-07T11:50:32;75.73;;;34.97;;
20093;SDS011;10206;48.012;10.030;2024-03-07T11:53:00;83.87;;;38.97;;
20093;SDS011;10206;48.012;10.030;2024-03-07T11:55:27;81.47;;;39.17;;
20093;SDS011;10206;48.012;10.030;2024-03-07T11:57:53;77.67;;;36.93;;
20093;SDS011;10206;48.012;10.030;2024-03-07T12:00:20;75.77;;;35.97;;
20093;SDS011;10206;48.012;10.030;2024-03-07T12:02:49;74.77;;;36.50;;
20093;SDS011;10206;48.012;10.030;2024-03-07T12:05:19;74.97;;;35.37;;
20093;SDS011;10206;48.012;10.030;2024-03-07T12:07:45;75.70;;;36.20;;
20093;SDS011;10206;48.012;10.030;2024-03-07T12:10:12;73.07;;;34.87;;
20093;SDS011;10206;48.012;10.030;2024-03-07T12:12:38;73.13;;;35.27;;
20093;SDS011;10206;48.012;10.030;2024-03-07T12:15:07;68.83;;;35.50;;
20093;SDS011;10206;48.012;10.030;2024-03-07T12:17:46;66.93;;;32.33;;
20093;SDS011;10206;48.012;10.030;2024-03-07T12:20:16;78.03;;;34.17;;
20093;SDS011;10206;48.012;10.030;2024-03-07T12:22:58;73.10;;;34.60;;
20093;SDS011;10206;48.012;10.030;2024-03-07T12:25:28;73.63;;;34.97;;
20093;SDS011;10206;48.012;10.030;2024-03-07T12:33:12;68.17;;;34.27;;
20093;SDS011;10206;48.012;10.030;2024-03-07T12:35:48;70.57;;;33.20;;
20093;SDS011;10206;48.012;10.030;2024-03-07T12:38:16;69.50;;;33.43;;
20093;SDS011;10206;48.012;10.030;2024-03-07T12:41:01;69.73;;;34.37;;
20093;SDS011;10206;48.012;10.030;2024-03-07T12:43:32;72.90;;;34.63;;
20093;SDS011;10206;48.012;10.030;2024-03-07T12:45:59;70.50;;;35.03;;
20093;SDS011;10206;48.012;10.030;2024-03-07T12:48:25;74.43;;;36.17;;
20093;SDS011;10206;48.012;10.030;2024-03-07T12:50:51;78.83;;;37.43;;
20093;SDS011;10206;48.012;10.030;2024-03-07T12:53:24;74.30;;;37.10;;
20093;SDS011;10206;48.012;10.030;2024-03-07T12:55:51;80.07;;;37.23;;
20093;SDS011;10206;48.012;10.030;2024-03-07T12:58:17;76.93;;;38.50;;
20093;SDS011;10206;48.012;10.030;2024-03-07T13:00:45;78.07;;;39.33;;
20093;SDS011;10206;48.012;10.030;2024-03-07T13:03:11;81.80;;;39.97;;
20093;SDS011;10206;48.012;10.030;2024-03-07T13:05:40;73.53;;;38.17;;
20093;SDS011;10206;48.012;10.030;2024-03-07T13:08:07;76.17;;;38.07;;
20093;SDS011;10206;48.012;10.030;2024-03-07T13:10:37;75.47;;;38.20;;
20093;SDS011;10206;48.012;10.030;2024-03-07T13:13:03;81.00;;;38.73;;
20093;SDS011;10206;48.012;10.030;2024-03-07T13:15:30;75.07;;;39.43;;
20093;SDS011;10206;48.012;10.030;2024-03-07T13:17:56;68.13;;;35.53;;
20093;SDS011;10206;48.012;10.030;2024-03-07T13:20:22;70.47;;;37.07;;
20093;SDS011;10206;48.012;10.030;2024-03-07T13:22:51;73.07;;;36.13;;
20093;SDS011;10206;48.012;10.030;2024-03-07T13:25:22;64.47;;;35.67;;
20093;SDS011;10206;48.012;10.030;2024-03-07T13:27:56;69.27;;;36.67;;
20093;SDS011;10206;48.012;10.030;2024-03-07T13:30:34;63.17;;;34.47;;
20093;SDS011;10206;48.012;10.030;2024-03-07T13:33:03;67.50;;;35.00;;
20093;SDS011;10206;48.012;10.030;2024-03-07T13:35:30;70.50;;;36.03;;
20093;SDS011;10206;48.012;10.030;2024-03-07T13:37:56;67.73;;;35.93;;
20093;SDS011;10206;48.012;10.030;2024-03-07T13:40:23;71.10;;;36.63;;
20093;SDS011;10206;48.012;10.030;2024-03-07T13:45:19;69.73;;;35.37;;
20093;SDS011;10206;48.012;10.030;2024-03-07T13:47:47;63.10;;;33.53;;
20093;SDS011;10206;48.012;10.030;2024-03-07T13:50:17;68.27;;;33.63;;
20093;SDS011;10206;48.012;10.030;2024-03-07T13:52:47;62.80;;;32.93;;
20093;SDS011;10206;48.012;10.030;2024-03-07T14:04:24;63.13;;;33.00;;
20093;SDS011;10206;48.012;10.030;2024-03-07T14:13:48;62.73;;;30.80;;
20093;SDS011;10206;48.012;10.030;2024-03-07T14:30:56;57.23;;;30.33;;
20093;SDS011;10206;48.012;10.030;2024-03-07T14:33:26;59.17;;;30.23;;
20093;SDS011;10206;48.012;10.030;2024-03-07T14:41:15;58.40;;;30.40;;
20093;SDS011;10206;48.012;10.030;2024-03-07T14:43:48;58.57;;;30.10;;
20093;SDS011;10206;48.012;10.030;2024-03-07T14:46:16;53.17;;;28.73;;
20093;SDS011;10206;48.012;10.030;2024-03-07T14:48:42;57.97;;;30.43;;
20093;SDS011;10206;48.012;10.030;2024-03-07T14:51:09;55.90;;;29.93;;
20093;SDS011;10206;48.012;10.030;2024-03-07T14:53:39;56.63;;;29.83;;
20093;SDS011;10206;48.012;10.030;2024-03-07T14:56:06;54.67;;;29.60;;
20093;SDS011;10206;48.012;10.030;2024-03-07T14:58:34;55.57;;;29.83;;
20093;SDS011;10206;48.012;10.030;2024-03-07T15:01:00;52.23;;;28.33;;
20093;SDS011;10206;48.012;10.030;2024-03-07T15:03:26;54.97;;;29.27;;
20093;SDS011;10206;48.012;10.030;2024-03-07T15:05:53;54.50;;;29.67;;
20093;SDS011;10206;48.012;10.030;2024-03-07T15:08:20;51.23;;;28.90;;
20093;SDS011;10206;48.012;10.030;2024-03-07T15:11:33;52.33;;;29.47;;
20093;SDS011;10206;48.012;10.030;2024-03-07T15:13:42;54.10;;;30.03;;